createdAt,value
2022-10-23T00:01:17.333Z,21.23
2022-10-23T00:03:46.068Z,19.48
2022-10-23T00:06:15.958Z,15.77
2022-10-23T00:08:44.388Z,18.27
2022-10-23T00:11:15.077Z,24.90
2022-10-23T00:13:43.332Z,20.55
2022-10-23T00:16:11.400Z,24.63
2022-10-23T00:18:41.050Z,26.00
2022-10-23T00:21:11.440Z,17.10
2022-10-23T00:23:40.472Z,20.63
2022-10-23T00:26:11.096Z,19.48
2022-10-23T00:28:39.370Z,24.48
2022-10-23T00:31:07.972Z,19.75
2022-10-23T00:33:36.186Z,28.95
2022-10-23T00:36:07.753Z,21.80
2022-10-23T00:38:36.067Z,25.13
2022-10-23T00:41:04.853Z,24.15
2022-10-23T00:43:33.294Z,19.25
2022-10-23T00:46:01.264Z,22.33
2022-10-23T00:48:30.090Z,22.65
2022-10-23T00:50:59.287Z,18.92
2022-10-23T00:53:28.897Z,20.35
2022-10-23T00:55:57.747Z,20.45
2022-10-23T00:58:25.693Z,16.60
2022-10-23T01:00:55.961Z,20.05
2022-10-23T01:03:27.181Z,18.05
2022-10-23T01:06:02.286Z,28.83
2022-10-23T01:08:36.851Z,22.00
2022-10-23T01:11:11.709Z,23.00
2022-10-23T01:13:45.618Z,20.35
2022-10-23T01:16:19.805Z,20.30
2022-10-23T01:18:54.817Z,21.50
2022-10-23T01:21:30.540Z,21.00
2022-10-23T01:24:11.289Z,21.52
2022-10-23T01:27:01.691Z,19.15
2022-10-23T01:29:38.587Z,23.88
2022-10-23T01:32:13.334Z,20.08
2022-10-23T01:34:48.027Z,19.98
2022-10-23T01:37:24.473Z,23.55
2022-10-23T01:39:56.596Z,16.38
2022-10-23T01:42:30.897Z,16.85
2022-10-23T01:45:04.290Z,25.13
2022-10-23T01:47:42.890Z,20.52
2022-10-23T01:50:15.646Z,25.10
2022-10-23T01:52:46.629Z,20.33
2022-10-23T01:55:15.507Z,20.23
2022-10-23T01:57:46.619Z,19.95
2022-10-23T02:00:21.381Z,16.63
2022-10-23T02:02:53.734Z,23.90
2022-10-23T02:05:28.054Z,23.27
2022-10-23T02:07:58.153Z,21.17
2022-10-23T02:10:42.647Z,21.83
2022-10-23T02:13:17.548Z,20.73
2022-10-23T02:15:50.031Z,25.13
2022-10-23T02:18:32.763Z,21.97
2022-10-23T02:21:10.348Z,25.15
2022-10-23T02:23:42.342Z,25.77
2022-10-23T02:26:16.811Z,21.77
2022-10-23T02:28:53.992Z,19.08
2022-10-23T02:31:25.176Z,27.42
2022-10-23T02:33:54.916Z,21.00
2022-10-23T02:36:24.356Z,21.10
2022-10-23T02:38:52.539Z,23.02
2022-10-23T02:41:31.119Z,26.63
2022-10-23T02:44:08.706Z,20.80
2022-10-23T02:46:48.349Z,23.73
2022-10-23T02:49:24.436Z,20.98
2022-10-23T02:52:02.052Z,17.77
2022-10-23T02:54:45.084Z,18.80
2022-10-23T02:57:22.912Z,18.00
2022-10-23T03:00:01.397Z,17.25
2022-10-23T03:02:36.807Z,18.88
2022-10-23T03:05:07.404Z,18.30
2022-10-23T03:07:36.102Z,15.20
2022-10-23T03:10:08.588Z,16.67
2022-10-23T03:12:37.516Z,21.08
2022-10-23T03:15:08.353Z,14.95
2022-10-23T03:17:37.655Z,13.70
2022-10-23T03:20:06.076Z,18.45
2022-10-23T03:22:33.967Z,16.15
2022-10-23T03:25:02.200Z,19.00
2022-10-23T03:27:32.462Z,15.88
2022-10-23T03:30:05.712Z,12.27
2022-10-23T03:32:35.161Z,14.88
2022-10-23T03:35:04.679Z,16.13
2022-10-23T03:37:33.532Z,15.25
2022-10-23T03:40:02.658Z,17.15
2022-10-23T03:42:33.880Z,12.93
2022-10-23T03:45:01.820Z,12.30
2022-10-23T03:47:30.699Z,17.80
2022-10-23T03:49:59.377Z,17.15
2022-10-23T03:52:28.789Z,16.52
2022-10-23T03:54:56.835Z,15.95
2022-10-23T03:57:25.357Z,18.88
2022-10-23T03:59:53.831Z,13.30
2022-10-23T04:02:21.919Z,12.18
2022-10-23T04:04:49.841Z,13.10
2022-10-23T04:07:17.771Z,11.98
2022-10-23T04:09:48.545Z,12.60
2022-10-23T04:12:18.279Z,18.33
2022-10-23T04:14:46.644Z,13.65
2022-10-23T04:17:14.704Z,17.85
2022-10-23T04:19:43.841Z,17.83
2022-10-23T04:22:11.910Z,13.82
2022-10-23T04:24:45.280Z,21.45
2022-10-23T04:27:18.913Z,17.27
2022-10-23T04:29:46.846Z,12.27
2022-10-23T04:32:14.849Z,17.02
2022-10-23T04:34:45.170Z,22.00
2022-10-23T04:37:13.852Z,19.27
2022-10-23T04:39:41.804Z,18.30
2022-10-23T04:42:14.190Z,21.15
2022-10-23T04:44:43.454Z,17.80
2022-10-23T04:47:12.822Z,17.27
2022-10-23T04:49:53.050Z,16.88
2022-10-23T04:52:23.764Z,18.45
2022-10-23T04:55:27.436Z,18.38
2022-10-23T04:58:18.508Z,24.52
2022-10-23T05:00:48.544Z,20.63
2022-10-23T05:03:23.830Z,21.17
2022-10-23T05:05:54.099Z,17.45
2022-10-23T05:08:31.571Z,18.92
2022-10-23T05:11:18.154Z,17.90
2022-10-23T05:13:49.073Z,20.70
2022-10-23T05:16:31.527Z,25.20
2022-10-23T05:19:00.952Z,18.95
2022-10-23T05:21:33.345Z,18.67
2022-10-23T05:24:02.148Z,17.33
2022-10-23T05:26:32.112Z,18.42
2022-10-23T05:29:05.550Z,21.80
2022-10-23T05:31:36.656Z,25.02
2022-10-23T05:34:13.456Z,20.05
2022-10-23T05:39:13.220Z,18.35
2022-10-23T05:41:41.354Z,19.52
2022-10-23T05:44:09.385Z,24.88
2022-10-23T05:46:57.601Z,18.40
2022-10-23T05:49:45.814Z,21.77
2022-10-23T05:52:22.437Z,19.88
2022-10-23T05:55:09.832Z,24.75
2022-10-23T05:57:56.499Z,16.67
2022-10-23T06:00:44.399Z,19.00
2022-10-23T06:03:34.085Z,20.73
2022-10-23T06:06:02.726Z,20.23
2022-10-23T06:08:41.628Z,17.58
2022-10-23T06:11:11.762Z,21.58
2022-10-23T06:13:40.352Z,15.60
2022-10-23T06:16:11.943Z,23.15
2022-10-23T06:18:42.086Z,21.80
2022-10-23T06:21:15.772Z,17.33
2022-10-23T06:23:47.874Z,16.65
2022-10-23T06:26:28.717Z,20.92
2022-10-23T06:29:01.532Z,22.43
2022-10-23T06:31:29.909Z,19.27
2022-10-23T06:34:01.153Z,20.30
2022-10-23T06:36:30.917Z,15.30
2022-10-23T06:39:10.288Z,20.38
2022-10-23T06:42:05.046Z,18.13
2022-10-23T06:45:11.700Z,24.73
2022-10-23T06:48:11.517Z,16.45
2022-10-23T06:51:00.657Z,19.63
2022-10-23T06:53:37.714Z,24.92
2022-10-23T06:56:13.606Z,25.23
2022-10-23T06:58:41.958Z,22.52
2022-10-23T07:01:16.938Z,20.67
2022-10-23T07:03:46.388Z,24.40
2022-10-23T07:06:16.517Z,21.70
2022-10-23T07:08:44.851Z,20.00
2022-10-23T07:11:36.009Z,24.45
2022-10-23T07:14:04.174Z,23.27
2022-10-23T07:16:32.677Z,24.00
2022-10-23T07:19:01.902Z,23.30
2022-10-23T07:21:32.850Z,22.42
2022-10-23T07:24:22.054Z,23.45
2022-10-23T07:26:52.437Z,20.10
2022-10-23T07:29:20.927Z,22.98
2022-10-23T07:31:49.769Z,19.25
2022-10-23T07:34:37.828Z,20.08
2022-10-23T07:37:20.517Z,22.02
2022-10-23T07:39:48.496Z,21.80
2022-10-23T07:42:16.492Z,16.85
2022-10-23T07:44:44.799Z,20.65
2022-10-23T07:47:13.326Z,19.92
2022-10-23T07:49:45.088Z,17.00
2022-10-23T07:52:13.482Z,18.30
2022-10-23T07:55:02.994Z,19.83
2022-10-23T07:57:33.475Z,18.45
2022-10-23T08:00:13.515Z,22.75
2022-10-23T08:02:53.374Z,25.05
2022-10-23T08:05:21.669Z,25.15
2022-10-23T08:07:56.013Z,14.98
2022-10-23T08:10:25.422Z,19.38
2022-10-23T08:12:53.650Z,18.83
2022-10-23T08:15:29.915Z,18.92
2022-10-23T08:18:04.479Z,21.70
2022-10-23T08:20:47.250Z,19.08
2022-10-23T08:23:18.391Z,21.45
2022-10-23T08:25:48.242Z,17.70
2022-10-23T08:28:18.299Z,27.55
2022-10-23T08:30:55.229Z,17.10
2022-10-23T08:33:23.397Z,12.60
2022-10-23T08:35:51.894Z,17.33
2022-10-23T08:38:29.315Z,18.73
2022-10-23T08:41:01.506Z,21.50
2022-10-23T08:43:57.745Z,15.50
2022-10-23T08:46:38.975Z,14.48
2022-10-23T08:49:29.505Z,20.35
2022-10-23T08:52:10.459Z,20.30
2022-10-23T08:54:50.771Z,18.65
2022-10-23T08:57:23.296Z,14.60
2022-10-23T09:00:01.163Z,19.30
2022-10-23T09:02:34.810Z,18.77
2022-10-23T09:07:41.554Z,19.20
2022-10-23T09:10:32.347Z,18.80
2022-10-23T09:13:12.269Z,21.10
2022-10-23T09:15:43.591Z,15.90
2022-10-23T09:18:15.282Z,14.55
2022-10-23T09:20:46.153Z,21.02
2022-10-23T09:23:17.904Z,18.10
2022-10-23T09:25:47.768Z,16.52
2022-10-23T09:28:22.621Z,17.15
2022-10-23T09:30:52.026Z,17.98
2022-10-23T09:33:22.305Z,17.10
2022-10-23T09:35:56.387Z,21.95
2022-10-23T09:38:29.641Z,15.23
2022-10-23T09:41:00.017Z,20.90
2022-10-23T09:43:29.622Z,18.85
2022-10-23T09:46:05.094Z,21.50
2022-10-23T09:48:35.362Z,14.82
2022-10-23T09:51:04.803Z,17.65
2022-10-23T09:53:36.707Z,15.98
2022-10-23T09:56:11.837Z,14.60
2022-10-23T09:58:53.944Z,15.50
2022-10-23T10:01:26.091Z,15.48
2022-10-23T10:03:57.918Z,15.43
2022-10-23T10:06:30.941Z,12.45
2022-10-23T10:09:01.964Z,11.43
2022-10-23T10:11:38.412Z,12.50
2022-10-23T10:14:44.815Z,13.25
2022-10-23T10:17:21.533Z,11.27
2022-10-23T10:20:06.958Z,13.57
2022-10-23T10:22:41.693Z,16.67
2022-10-23T10:25:14.701Z,18.25
2022-10-23T10:27:52.826Z,17.63
2022-10-23T10:30:24.323Z,14.00
2022-10-23T10:32:59.985Z,14.50
2022-10-23T10:35:38.418Z,14.77
2022-10-23T10:38:38.195Z,14.52
2022-10-23T10:41:28.344Z,16.20
2022-10-23T10:44:11.755Z,16.47
2022-10-23T10:46:47.870Z,12.30
2022-10-23T10:49:21.498Z,17.20
2022-10-23T10:52:21.774Z,12.70
2022-10-23T10:54:59.909Z,11.00
2022-10-23T10:57:34.883Z,11.20
2022-10-23T11:00:06.493Z,17.88
2022-10-23T11:02:42.425Z,10.48
2022-10-23T11:05:30.901Z,14.82
2022-10-23T11:08:05.059Z,15.18
2022-10-23T11:10:34.580Z,12.52
2022-10-23T11:13:03.576Z,18.95
2022-10-23T11:15:43.988Z,15.10
2022-10-23T11:18:19.913Z,10.02
2022-10-23T11:21:00.586Z,9.88
2022-10-23T11:24:01.070Z,11.90
2022-10-23T11:26:41.260Z,13.48
2022-10-23T11:29:43.853Z,15.32
2022-10-23T11:32:31.553Z,12.02
2022-10-23T11:35:20.993Z,12.52
2022-10-23T11:38:00.109Z,13.30
2022-10-23T11:40:28.902Z,12.75
2022-10-23T11:42:57.070Z,14.23
2022-10-23T11:45:33.978Z,13.40
2022-10-23T11:48:04.470Z,15.48
2022-10-23T11:50:50.671Z,10.50
2022-10-23T11:53:27.574Z,19.02
2022-10-23T11:56:01.703Z,12.82
2022-10-23T11:58:41.961Z,9.88
2022-10-23T12:01:25.540Z,21.40
2022-10-23T12:03:57.946Z,11.65
2022-10-23T12:06:33.023Z,12.70
2022-10-23T12:09:05.714Z,9.00
2022-10-23T12:11:45.810Z,8.10
2022-10-23T12:14:31.943Z,12.13
2022-10-23T12:17:01.037Z,14.63
2022-10-23T12:19:31.233Z,19.77
2022-10-23T12:22:02.949Z,10.20
2022-10-23T12:24:49.157Z,15.75
2022-10-23T12:27:31.214Z,12.57
2022-10-23T12:30:23.560Z,14.68
2022-10-23T12:33:13.780Z,9.93
2022-10-23T12:36:03.989Z,11.85
2022-10-23T12:38:35.698Z,14.35
2022-10-23T12:41:13.856Z,10.02
2022-10-23T12:43:45.396Z,9.68
2022-10-23T12:46:37.948Z,12.27
2022-10-23T12:49:15.899Z,9.05
2022-10-23T12:51:44.170Z,5.18
2022-10-23T12:54:19.174Z,16.30
2022-10-23T12:56:48.494Z,9.73
2022-10-23T12:59:19.577Z,15.68
2022-10-23T13:01:52.389Z,8.90
2022-10-23T13:04:28.295Z,11.68
2022-10-23T13:06:57.686Z,9.27
2022-10-23T13:09:32.200Z,12.77
2022-10-23T13:12:22.350Z,10.95
2022-10-23T13:15:00.182Z,8.77
2022-10-23T13:17:40.246Z,17.35
2022-10-23T13:20:22.935Z,11.70
2022-10-23T13:22:59.268Z,9.35
2022-10-23T13:25:32.878Z,13.07
2022-10-23T13:28:16.007Z,13.88
2022-10-23T13:30:46.364Z,8.60
2022-10-23T13:33:24.046Z,7.55
2022-10-23T13:35:59.320Z,10.95
2022-10-23T13:38:32.799Z,7.28
2022-10-23T13:43:32.702Z,17.55
2022-10-23T13:46:01.619Z,15.80
2022-10-23T13:48:30.117Z,5.82
2022-10-23T13:51:07.976Z,17.23
2022-10-23T13:53:35.900Z,9.82
2022-10-23T13:56:05.399Z,16.58
2022-10-23T13:58:33.366Z,8.57
2022-10-23T14:01:01.914Z,8.32
2022-10-23T14:03:29.937Z,11.43
2022-10-23T14:05:58.018Z,7.72
2022-10-23T14:08:25.900Z,8.52
2022-10-23T14:10:54.295Z,14.18
2022-10-23T14:13:23.842Z,8.23
2022-10-23T14:15:54.600Z,9.23
2022-10-23T14:18:23.073Z,10.07
2022-10-23T14:20:51.430Z,13.23
2022-10-23T14:23:19.954Z,10.45
2022-10-23T14:25:47.972Z,9.50
2022-10-23T14:28:16.132Z,18.13
2022-10-23T14:30:45.801Z,13.88
2022-10-23T14:33:15.197Z,11.45
2022-10-23T14:35:43.535Z,9.40
2022-10-23T14:38:11.698Z,15.68
2022-10-23T14:40:40.463Z,28.13
2022-10-23T14:43:08.342Z,9.35
2022-10-23T14:45:36.452Z,8.00
2022-10-23T14:48:06.499Z,13.40
2022-10-23T14:50:43.182Z,12.38
2022-10-23T14:53:11.172Z,14.75
2022-10-23T14:55:39.353Z,18.13
2022-10-23T14:58:07.708Z,9.00
2022-10-23T15:00:35.658Z,11.40
2022-10-23T15:03:06.898Z,14.38
2022-10-23T15:05:35.721Z,11.20
2022-10-23T15:08:03.856Z,12.18
2022-10-23T15:10:32.242Z,12.18
2022-10-23T15:13:00.240Z,7.82
2022-10-23T15:15:28.417Z,8.43
2022-10-23T15:17:56.506Z,9.43
2022-10-23T15:20:25.870Z,16.10
2022-10-23T15:22:53.966Z,11.70
2022-10-23T15:25:21.889Z,8.80
2022-10-23T15:27:50.014Z,8.38
2022-10-23T15:30:18.867Z,10.82
2022-10-23T15:32:46.734Z,12.60
2022-10-23T15:35:14.704Z,17.63
2022-10-23T15:37:44.908Z,13.93
2022-10-23T15:40:13.879Z,10.63
2022-10-23T15:42:42.292Z,21.15
2022-10-23T15:45:14.031Z,10.88
2022-10-23T15:47:42.289Z,7.20
2022-10-23T15:50:10.868Z,12.05
2022-10-23T15:52:38.918Z,12.85
2022-10-23T15:55:11.614Z,7.90
2022-10-23T15:57:39.713Z,7.80
2022-10-23T16:00:10.526Z,19.75
2022-10-23T16:02:38.554Z,10.70
2022-10-23T16:05:07.420Z,9.60
2022-10-23T16:07:35.606Z,8.73
2022-10-23T16:10:04.927Z,9.35
2022-10-23T16:12:34.422Z,12.00
2022-10-23T16:15:02.458Z,8.27
2022-10-23T16:17:30.809Z,9.52
2022-10-23T16:19:58.703Z,12.55
2022-10-23T16:22:27.113Z,10.45
2022-10-23T16:24:55.420Z,11.70
2022-10-23T16:27:23.399Z,12.50
2022-10-23T16:29:55.104Z,9.77
2022-10-23T16:32:23.034Z,8.93
2022-10-23T16:34:51.189Z,12.07
2022-10-23T16:37:21.398Z,14.02
2022-10-23T16:39:55.572Z,12.88
2022-10-23T16:43:01.902Z,13.38
2022-10-23T16:45:42.069Z,9.23
2022-10-23T16:48:10.052Z,11.68
2022-10-23T16:53:07.578Z,10.85
2022-10-23T16:55:35.741Z,11.82
2022-10-23T16:58:04.261Z,9.85
2022-10-23T17:00:35.239Z,12.98
2022-10-23T17:03:06.116Z,10.43
2022-10-23T17:05:35.417Z,10.52
2022-10-23T17:08:04.212Z,12.82
2022-10-23T17:10:32.653Z,18.33
2022-10-23T17:13:00.637Z,15.68
2022-10-23T17:15:28.810Z,11.90
2022-10-23T17:17:58.174Z,10.40
2022-10-23T17:20:27.472Z,14.77
2022-10-23T17:22:55.486Z,12.57
2022-10-23T17:25:23.509Z,9.52
2022-10-23T17:27:51.590Z,10.18
2022-10-23T17:30:19.504Z,8.07
2022-10-23T17:32:47.855Z,15.60
2022-10-23T17:35:16.216Z,9.50
2022-10-23T17:37:45.678Z,8.48
2022-10-23T17:40:14.122Z,11.82
2022-10-23T17:42:42.446Z,9.05
2022-10-23T17:45:11.481Z,8.82
2022-10-23T17:47:41.188Z,8.88
2022-10-23T17:50:12.244Z,12.75
2022-10-23T17:52:40.349Z,12.10
2022-10-23T17:55:10.644Z,8.45
2022-10-23T17:57:39.079Z,6.65
2022-10-23T18:00:07.869Z,8.50
2022-10-23T18:02:40.951Z,10.90
2022-10-23T18:05:09.457Z,8.55
2022-10-23T18:07:37.524Z,10.68
2022-10-23T18:10:06.606Z,10.77
2022-10-23T18:12:37.306Z,11.80
2022-10-23T18:15:06.980Z,6.07
2022-10-23T18:17:35.778Z,12.00
2022-10-23T18:20:04.626Z,9.13
2022-10-23T18:22:33.493Z,12.45
2022-10-23T18:25:01.990Z,5.93
2022-10-23T18:27:29.932Z,9.20
2022-10-23T18:29:59.894Z,13.65
2022-10-23T18:32:29.792Z,7.90
2022-10-23T18:34:57.863Z,26.27
2022-10-23T18:37:28.873Z,9.77
2022-10-23T18:39:59.876Z,15.00
2022-10-23T18:42:27.854Z,9.50
2022-10-23T18:44:55.833Z,15.23
2022-10-23T18:47:25.236Z,11.88
2022-10-23T18:49:53.199Z,27.40
2022-10-23T18:52:21.232Z,13.00
2022-10-23T18:54:49.525Z,10.90
2022-10-23T18:57:17.477Z,12.35
2022-10-23T18:59:45.422Z,12.63
2022-10-23T19:02:13.525Z,8.75
2022-10-23T19:04:43.126Z,9.35
2022-10-23T19:07:11.028Z,8.30
2022-10-23T19:09:40.213Z,12.13
2022-10-23T19:12:08.431Z,17.85
2022-10-23T19:14:36.573Z,10.35
2022-10-23T19:17:09.217Z,9.35
2022-10-23T19:19:42.472Z,7.82
2022-10-23T19:22:13.304Z,9.45
2022-10-23T19:24:45.345Z,8.98
2022-10-23T19:27:13.692Z,9.65
2022-10-23T19:29:46.125Z,17.27
2022-10-23T19:32:14.757Z,8.75
2022-10-23T19:34:42.829Z,12.05
2022-10-23T19:39:40.592Z,15.52
2022-10-23T19:42:09.006Z,16.25
2022-10-23T19:44:36.961Z,8.43
2022-10-23T19:47:05.451Z,8.10
2022-10-23T19:49:33.374Z,13.80
2022-10-23T19:52:01.407Z,11.02
2022-10-23T19:54:30.709Z,9.30
2022-10-23T19:56:58.706Z,9.57
2022-10-23T19:59:26.618Z,9.15
2022-10-23T20:01:54.653Z,17.13
2022-10-23T20:04:22.846Z,13.27
2022-10-23T20:06:50.784Z,11.27
2022-10-23T20:09:18.700Z,19.52
2022-10-23T20:11:49.268Z,11.45
2022-10-23T20:14:18.672Z,11.95
2022-10-23T20:16:51.131Z,8.35
2022-10-23T20:19:23.334Z,9.82
2022-10-23T20:21:51.469Z,8.80
2022-10-23T20:24:21.408Z,17.25
2022-10-23T20:26:52.523Z,13.95
2022-10-23T20:29:21.239Z,6.97
2022-10-23T20:31:49.692Z,9.75
2022-10-23T20:34:18.994Z,9.68
2022-10-23T20:36:49.272Z,5.85
2022-10-23T20:39:19.669Z,12.07
2022-10-23T20:41:48.583Z,10.20
2022-10-23T20:44:19.883Z,8.90
2022-10-23T20:46:48.711Z,10.27
2022-10-23T20:49:17.794Z,8.77
2022-10-23T20:51:46.414Z,10.88
2022-10-23T20:54:14.308Z,11.93
2022-10-23T20:56:42.441Z,19.02
2022-10-23T20:59:13.251Z,5.65
2022-10-23T21:01:44.745Z,10.70
2022-10-23T21:04:14.490Z,11.25
2022-10-23T21:06:57.719Z,7.10
2022-10-23T21:09:31.720Z,11.10
2022-10-23T21:11:59.809Z,6.75
2022-10-23T21:14:28.671Z,12.10
2022-10-23T21:16:58.664Z,11.68
2022-10-23T21:19:26.657Z,9.05
2022-10-23T21:21:55.134Z,7.50
2022-10-23T21:24:24.020Z,4.85
2022-10-23T21:26:51.973Z,8.15
2022-10-23T21:29:20.580Z,10.35
2022-10-23T21:31:53.622Z,11.85
2022-10-23T21:34:23.256Z,10.23
2022-10-23T21:37:11.826Z,10.50
2022-10-23T21:39:39.226Z,10.98
2022-10-23T21:42:07.856Z,9.93
2022-10-23T21:44:36.382Z,8.68
2022-10-23T21:47:05.843Z,9.50
2022-10-23T21:49:35.298Z,13.25
2022-10-23T21:52:03.314Z,11.45
2022-10-23T21:54:31.697Z,9.35
2022-10-23T21:56:59.852Z,11.48
2022-10-23T21:59:31.507Z,9.57
2022-10-23T22:02:01.326Z,6.78
2022-10-23T22:04:30.168Z,11.27
2022-10-23T22:06:59.637Z,5.93
2022-10-23T22:09:30.806Z,7.63
2022-10-23T22:12:00.787Z,8.43
2022-10-23T22:14:29.221Z,8.85
2022-10-23T22:16:57.481Z,9.55
2022-10-23T22:19:25.614Z,8.85
2022-10-23T22:21:53.500Z,13.38
2022-10-23T22:24:25.716Z,9.20
2022-10-23T22:26:56.545Z,13.00
2022-10-23T22:29:27.726Z,8.25
2022-10-23T22:31:56.401Z,8.30
2022-10-23T22:34:48.410Z,9.88
2022-10-23T22:37:14.364Z,7.68
2022-10-23T22:39:43.846Z,8.25
2022-10-23T22:42:11.875Z,9.68
2022-10-23T22:44:40.002Z,8.68
2022-10-23T22:47:08.265Z,5.93
2022-10-23T22:49:36.733Z,9.23
2022-10-23T22:52:04.855Z,9.63
2022-10-23T22:54:33.270Z,12.57
2022-10-23T22:57:02.817Z,8.93
2022-10-23T22:59:31.252Z,7.07
2022-10-23T23:01:59.468Z,11.18
2022-10-23T23:04:43.326Z,10.98
2022-10-23T23:07:12.863Z,6.40
2022-10-23T23:09:42.716Z,8.05
2022-10-23T23:12:14.304Z,3.67
2022-10-23T23:14:42.477Z,14.82
2022-10-23T23:17:11.186Z,9.63
2022-10-23T23:19:40.014Z,8.82
2022-10-23T23:22:08.477Z,5.28
2022-10-23T23:24:36.684Z,4.68
2022-10-23T23:27:05.010Z,7.72
2022-10-23T23:29:34.359Z,7.88
2022-10-23T23:32:02.342Z,8.40
2022-10-23T23:34:30.426Z,5.55
2022-10-23T23:36:58.679Z,5.15
2022-10-23T23:39:28.638Z,4.20
2022-10-23T23:41:56.774Z,9.30
2022-10-23T23:44:25.058Z,6.40
2022-10-23T23:46:54.385Z,5.75
2022-10-23T23:49:22.492Z,8.73
2022-10-23T23:51:50.524Z,7.93
2022-10-23T23:54:18.895Z,9.57
2022-10-23T23:56:46.753Z,5.03
2022-10-23T23:59:14.675Z,11.45
